createdAt,value
2022-10-21T00:01:06.924Z,97.13
2022-10-21T00:03:38.806Z,97.17
2022-10-21T00:06:09.227Z,97.18
2022-10-21T00:08:38.703Z,97.19
2022-10-21T00:11:09.466Z,97.00
2022-10-21T00:13:39.579Z,96.91
2022-10-21T00:16:12.192Z,97.21
2022-10-21T00:18:41.978Z,97.16
2022-10-21T00:21:15.739Z,97.24
2022-10-21T00:23:44.646Z,97.16
2022-10-21T00:26:14.115Z,96.83
2022-10-21T00:28:42.943Z,97.00
2022-10-21T00:31:13.258Z,97.06
2022-10-21T00:33:42.354Z,97.07
2022-10-21T00:36:15.234Z,97.19
2022-10-21T00:38:45.748Z,97.18
2022-10-21T00:41:16.681Z,97.17
2022-10-21T00:44:07.610Z,97.36
2022-10-21T00:46:40.034Z,97.35
2022-10-21T00:49:16.889Z,97.38
2022-10-21T00:51:48.098Z,97.30
2022-10-21T00:54:18.003Z,97.41
2022-10-21T00:56:48.261Z,97.16
2022-10-21T00:59:17.741Z,97.10
2022-10-21T01:01:46.035Z,97.27
2022-10-21T01:04:14.354Z,97.14
2022-10-21T01:06:44.100Z,96.91
2022-10-21T01:09:14.049Z,97.06
2022-10-21T01:11:46.792Z,97.47
2022-10-21T01:14:42.954Z,97.78
2022-10-21T01:17:44.589Z,98.25
2022-10-21T01:20:24.069Z,98.39
2022-10-21T01:23:07.455Z,98.45
2022-10-21T01:25:56.838Z,98.21
2022-10-21T01:28:25.096Z,97.94
2022-10-21T01:30:58.029Z,97.81
2022-10-21T01:33:40.344Z,97.84
2022-10-21T01:36:24.578Z,97.49
2022-10-21T01:39:03.633Z,97.51
2022-10-21T01:41:48.702Z,97.73
2022-10-21T01:44:29.695Z,97.76
2022-10-21T01:47:02.534Z,97.53
2022-10-21T01:49:37.003Z,97.79
2022-10-21T01:52:06.721Z,97.40
2022-10-21T01:54:41.058Z,97.06
2022-10-21T01:57:13.693Z,96.86
2022-10-21T01:59:44.450Z,96.81
2022-10-21T02:02:16.097Z,96.87
2022-10-21T02:04:47.916Z,97.14
2022-10-21T02:07:16.117Z,97.25
2022-10-21T02:09:44.406Z,97.05
2022-10-21T02:12:13.848Z,97.16
2022-10-21T02:14:48.637Z,97.24
2022-10-21T02:17:20.066Z,97.18
2022-10-21T02:19:48.409Z,97.09
2022-10-21T02:22:21.126Z,96.87
2022-10-21T02:24:54.201Z,96.76
2022-10-21T02:27:23.483Z,96.72
2022-10-21T02:29:56.034Z,96.61
2022-10-21T02:32:47.765Z,96.89
2022-10-21T02:35:34.030Z,96.75
2022-10-21T02:38:05.624Z,96.98
2022-10-21T02:40:43.046Z,97.04
2022-10-21T02:43:44.278Z,96.79
2022-10-21T02:46:14.722Z,96.71
2022-10-21T02:48:47.998Z,96.65
2022-10-21T02:51:16.661Z,96.49
2022-10-21T02:53:45.054Z,96.72
2022-10-21T02:56:13.293Z,96.76
2022-10-21T02:58:41.614Z,96.91
2022-10-21T03:01:09.904Z,96.79
2022-10-21T03:03:38.149Z,96.76
2022-10-21T03:06:07.129Z,96.76
2022-10-21T03:08:35.445Z,96.82
2022-10-21T03:11:03.933Z,96.89
2022-10-21T03:13:32.274Z,97.21
2022-10-21T03:16:00.608Z,97.03
2022-10-21T03:18:28.955Z,97.27
2022-10-21T03:20:57.338Z,97.12
2022-10-21T03:23:25.650Z,97.20
2022-10-21T03:25:53.897Z,97.11
2022-10-21T03:28:22.206Z,97.27
2022-10-21T03:30:50.470Z,97.41
2022-10-21T03:33:18.691Z,97.50
2022-10-21T03:35:47.067Z,97.58
2022-10-21T03:38:15.360Z,97.36
2022-10-21T03:40:43.581Z,97.36
2022-10-21T03:43:11.869Z,97.37
2022-10-21T03:45:40.121Z,97.48
2022-10-21T03:48:08.546Z,97.43
2022-10-21T03:50:36.847Z,97.39
2022-10-21T03:53:13.693Z,97.54
2022-10-21T03:55:42.218Z,97.61
2022-10-21T03:58:10.403Z,97.44
2022-10-21T04:00:38.835Z,97.42
2022-10-21T04:03:07.146Z,97.54
2022-10-21T04:05:35.407Z,97.66
2022-10-21T04:08:03.735Z,97.50
2022-10-21T04:10:31.977Z,97.66
2022-10-21T04:13:00.178Z,97.75
2022-10-21T04:15:28.489Z,97.87
2022-10-21T04:17:56.826Z,98.10
2022-10-21T04:20:25.095Z,98.25
2022-10-21T04:22:53.346Z,98.02
2022-10-21T04:25:21.646Z,98.08
2022-10-21T04:27:49.947Z,97.99
2022-10-21T04:30:18.287Z,97.85
2022-10-21T04:32:47.257Z,97.74
2022-10-21T04:35:15.555Z,97.44
2022-10-21T04:37:44.360Z,97.54
2022-10-21T04:40:13.021Z,97.48
2022-10-21T04:42:41.433Z,97.49
2022-10-21T04:45:10.257Z,97.77
2022-10-21T04:47:38.876Z,97.60
2022-10-21T04:50:07.691Z,97.58
2022-10-21T04:52:36.225Z,97.60
2022-10-21T04:55:05.497Z,97.50
2022-10-21T04:57:33.846Z,97.60
2022-10-21T05:00:02.378Z,97.18
2022-10-21T05:02:30.817Z,97.43
2022-10-21T05:04:59.137Z,97.31
2022-10-21T05:07:27.917Z,97.38
2022-10-21T05:09:56.291Z,97.55
2022-10-21T05:12:24.575Z,97.35
2022-10-21T05:14:52.854Z,97.45
2022-10-21T05:17:21.170Z,97.34
2022-10-21T05:19:49.391Z,97.18
2022-10-21T05:22:17.705Z,97.07
2022-10-21T05:24:46.577Z,97.40
2022-10-21T05:27:14.950Z,97.45
2022-10-21T05:29:43.211Z,97.32
2022-10-21T05:32:11.554Z,97.53
2022-10-21T05:34:39.765Z,97.83
2022-10-21T05:37:08.078Z,98.14
2022-10-21T05:39:36.488Z,98.44
2022-10-21T05:42:04.824Z,98.40
2022-10-21T05:44:33.033Z,98.56
2022-10-21T05:47:01.304Z,98.62
2022-10-21T05:49:29.526Z,98.73
2022-10-21T05:51:57.965Z,98.70
2022-10-21T05:54:26.220Z,98.79
2022-10-21T05:56:58.281Z,98.67
2022-10-21T05:59:27.697Z,98.41
2022-10-21T06:01:55.908Z,98.70
2022-10-21T06:04:24.253Z,98.82
2022-10-21T06:06:52.557Z,98.80
2022-10-21T06:09:20.830Z,98.91
2022-10-21T06:11:49.153Z,98.91
2022-10-21T06:14:17.529Z,99.09
2022-10-21T06:16:45.879Z,99.33
2022-10-21T06:19:14.293Z,99.59
2022-10-21T06:21:42.610Z,99.86
2022-10-21T06:24:10.878Z,99.61
2022-10-21T06:26:39.102Z,99.70
2022-10-21T06:29:07.497Z,99.63
2022-10-21T06:31:35.743Z,99.98
2022-10-21T06:34:04.238Z,100.00
2022-10-21T06:36:32.634Z,100.00
2022-10-21T06:39:00.931Z,100.00
2022-10-21T06:41:29.179Z,100.00
2022-10-21T06:43:57.642Z,100.00
2022-10-21T06:46:26.071Z,100.00
2022-10-21T06:48:54.310Z,100.00
2022-10-21T06:51:24.399Z,100.00
2022-10-21T06:53:58.430Z,100.00
2022-10-21T06:56:27.915Z,100.00
2022-10-21T06:58:58.129Z,100.00
2022-10-21T07:01:35.288Z,100.00
2022-10-21T07:04:10.504Z,100.00
2022-10-21T07:06:38.902Z,100.00
2022-10-21T07:09:08.941Z,100.00
2022-10-21T07:11:37.288Z,100.00
2022-10-21T07:14:05.784Z,100.00
2022-10-21T07:16:36.846Z,100.00
2022-10-21T07:19:06.059Z,100.00
2022-10-21T07:21:34.651Z,100.00
2022-10-21T07:24:02.998Z,100.00
2022-10-21T07:26:33.494Z,99.74
2022-10-21T07:29:02.497Z,99.43
2022-10-21T07:31:37.326Z,99.07
2022-10-21T07:34:08.287Z,99.13
2022-10-21T07:36:42.538Z,99.53
2022-10-21T07:39:14.185Z,99.65
2022-10-21T07:41:45.753Z,99.06
2022-10-21T07:44:14.701Z,98.88
2022-10-21T07:46:44.267Z,98.96
2022-10-21T07:49:13.451Z,99.09
2022-10-21T07:51:43.220Z,99.00
2022-10-21T07:54:12.588Z,98.78
2022-10-21T07:56:47.319Z,98.90
2022-10-21T07:59:17.550Z,99.00
2022-10-21T08:04:24.696Z,98.39
2022-10-21T08:06:53.070Z,98.37
2022-10-21T08:09:22.308Z,98.49
2022-10-21T08:11:50.535Z,98.67
2022-10-21T08:14:18.841Z,98.90
2022-10-21T08:16:51.746Z,98.76
2022-10-21T08:19:24.163Z,98.54
2022-10-21T08:21:52.501Z,98.35
2022-10-21T08:24:20.758Z,97.87
2022-10-21T08:26:49.752Z,97.59
2022-10-21T08:29:18.203Z,97.62
2022-10-21T08:31:46.694Z,97.58
2022-10-21T08:34:14.951Z,97.51
2022-10-21T08:36:43.308Z,97.26
2022-10-21T08:39:11.540Z,97.00
2022-10-21T08:42:07.812Z,96.86
2022-10-21T08:44:43.027Z,96.39
2022-10-21T08:47:11.123Z,96.14
2022-10-21T08:49:52.161Z,95.59
2022-10-21T08:52:26.195Z,95.44
2022-10-21T08:55:01.406Z,94.80
2022-10-21T08:57:34.823Z,94.44
2022-10-21T09:00:22.291Z,94.49
2022-10-21T09:03:19.718Z,94.73
2022-10-21T09:05:54.274Z,94.60
2022-10-21T09:08:38.044Z,94.81
2022-10-21T09:11:20.105Z,94.98
2022-10-21T09:13:56.173Z,94.95
2022-10-21T09:16:40.257Z,94.48
2022-10-21T09:19:44.000Z,93.47
2022-10-21T09:22:35.878Z,92.74
2022-10-21T09:25:16.508Z,92.36
2022-10-21T09:27:55.474Z,91.81
2022-10-21T09:30:25.325Z,90.83
2022-10-21T09:32:59.233Z,90.24
2022-10-21T09:35:36.718Z,89.93
2022-10-21T09:38:19.674Z,90.05
2022-10-21T09:40:52.297Z,89.30
2022-10-21T09:43:25.196Z,89.00
2022-10-21T09:45:53.758Z,88.46
2022-10-21T09:49:08.120Z,88.56
2022-10-21T09:51:40.372Z,87.11
2022-10-21T09:54:13.695Z,85.90
2022-10-21T09:56:58.957Z,84.40
2022-10-21T09:59:32.925Z,82.44
2022-10-21T10:02:14.484Z,80.93
2022-10-21T10:04:42.867Z,79.88
2022-10-21T10:07:40.438Z,79.45
2022-10-21T10:10:34.224Z,76.70
2022-10-21T10:13:02.446Z,76.15
2022-10-21T10:15:37.604Z,74.97
2022-10-21T10:18:19.878Z,74.29
2022-10-21T10:21:05.092Z,73.93
2022-10-21T10:23:46.946Z,73.10
2022-10-21T10:26:22.721Z,72.91
2022-10-21T10:28:54.274Z,72.67
2022-10-21T10:31:32.584Z,71.71
2022-10-21T10:34:07.884Z,71.36
2022-10-21T10:36:40.224Z,70.53
2022-10-21T10:39:23.499Z,70.51
2022-10-21T10:41:52.762Z,69.89
2022-10-21T10:44:30.025Z,69.40
2022-10-21T10:47:01.187Z,69.89
2022-10-21T10:49:40.246Z,69.76
2022-10-21T10:52:11.314Z,70.29
2022-10-21T10:54:41.999Z,69.16
2022-10-21T10:57:18.901Z,68.89
2022-10-21T11:00:19.541Z,67.13
2022-10-21T11:03:00.529Z,67.21
2022-10-21T11:05:37.709Z,67.29
2022-10-21T11:08:15.622Z,66.92
2022-10-21T11:10:48.308Z,66.67
2022-10-21T11:13:25.096Z,66.35
2022-10-21T11:16:05.942Z,66.48
2022-10-21T11:18:39.879Z,65.22
2022-10-21T11:21:32.660Z,64.28
2022-10-21T11:24:03.844Z,64.89
2022-10-21T11:26:56.306Z,65.24
2022-10-21T11:29:36.611Z,65.64
2022-10-21T11:32:12.478Z,65.26
2022-10-21T11:34:53.280Z,64.04
2022-10-21T11:37:39.863Z,64.04
2022-10-21T11:40:19.847Z,64.73
2022-10-21T11:42:51.664Z,64.28
2022-10-21T11:45:33.267Z,64.50
2022-10-21T11:48:25.994Z,65.07
2022-10-21T11:51:23.055Z,64.50
2022-10-21T11:54:01.217Z,64.49
2022-10-21T11:56:47.627Z,65.18
2022-10-21T11:59:33.919Z,65.03
2022-10-21T12:02:25.365Z,64.26
2022-10-21T12:04:59.510Z,63.38
2022-10-21T12:07:59.541Z,62.88
2022-10-21T12:10:33.599Z,62.89
2022-10-21T12:13:15.514Z,63.39
2022-10-21T12:15:49.569Z,63.75
2022-10-21T12:18:20.930Z,64.58
2022-10-21T12:20:52.832Z,64.79
2022-10-21T12:23:24.846Z,63.47
2022-10-21T12:26:04.788Z,64.01
2022-10-21T12:28:43.005Z,63.29
2022-10-21T12:32:05.619Z,63.42
2022-10-21T12:34:34.393Z,62.74
2022-10-21T12:37:02.643Z,62.79
2022-10-21T12:39:33.918Z,64.10
2022-10-21T12:42:06.215Z,62.91
2022-10-21T12:44:36.748Z,62.83
2022-10-21T12:47:23.645Z,63.11
2022-10-21T12:50:07.161Z,63.36
2022-10-21T12:52:38.544Z,63.22
2022-10-21T12:55:19.441Z,64.17
2022-10-21T12:57:58.156Z,64.89
2022-10-21T13:00:29.426Z,65.16
2022-10-21T13:03:06.517Z,65.32
2022-10-21T13:05:37.400Z,65.59
2022-10-21T13:08:23.058Z,65.41
2022-10-21T13:11:06.783Z,65.56
2022-10-21T13:13:43.253Z,65.17
2022-10-21T13:16:20.563Z,64.40
2022-10-21T13:19:00.273Z,64.35
2022-10-21T13:21:48.116Z,64.56
2022-10-21T13:24:23.877Z,64.21
2022-10-21T13:26:58.389Z,64.64
2022-10-21T13:29:39.415Z,65.56
2022-10-21T13:32:14.930Z,65.05
2022-10-21T13:34:49.094Z,64.95
2022-10-21T13:37:35.028Z,65.85
2022-10-21T13:40:13.719Z,66.57
2022-10-21T13:43:07.085Z,66.42
2022-10-21T13:48:18.543Z,66.42
2022-10-21T13:50:49.557Z,66.83
2022-10-21T13:53:21.956Z,67.04
2022-10-21T13:55:55.844Z,67.36
2022-10-21T13:58:25.726Z,67.72
2022-10-21T14:00:57.897Z,67.79
2022-10-21T14:03:28.163Z,68.27
2022-10-21T14:06:01.673Z,67.82
2022-10-21T14:08:33.525Z,68.38
2022-10-21T14:11:23.153Z,68.60
2022-10-21T14:13:51.727Z,68.30
2022-10-21T14:16:29.178Z,68.24
2022-10-21T14:18:58.294Z,68.24
2022-10-21T14:21:29.626Z,68.13
2022-10-21T14:23:58.177Z,67.94
2022-10-21T14:26:31.000Z,67.92
2022-10-21T14:29:01.149Z,68.03
2022-10-21T14:31:29.812Z,68.43
2022-10-21T14:33:58.263Z,68.96
2022-10-21T14:36:27.892Z,69.45
2022-10-21T14:39:06.663Z,69.69
2022-10-21T14:41:37.719Z,70.84
2022-10-21T14:44:26.702Z,71.54
2022-10-21T14:46:55.315Z,72.37
2022-10-21T14:49:27.750Z,72.60
2022-10-21T14:52:05.731Z,72.70
2022-10-21T14:54:45.764Z,72.61
2022-10-21T14:57:32.200Z,72.40
2022-10-21T15:00:01.600Z,73.37
2022-10-21T15:02:34.378Z,74.19
2022-10-21T15:05:05.822Z,74.63
2022-10-21T15:07:36.890Z,74.79
2022-10-21T15:10:05.442Z,75.07
2022-10-21T15:12:52.742Z,74.68
2022-10-21T15:15:54.054Z,74.58
2022-10-21T15:18:26.875Z,74.87
2022-10-21T15:21:08.575Z,75.13
2022-10-21T15:23:49.832Z,75.48
2022-10-21T15:26:31.292Z,75.63
2022-10-21T15:28:59.775Z,75.69
2022-10-21T15:31:29.409Z,76.26
2022-10-21T15:33:58.769Z,76.46
2022-10-21T15:36:26.937Z,76.51
2022-10-21T15:38:55.503Z,76.28
2022-10-21T15:41:25.571Z,76.25
2022-10-21T15:43:53.752Z,75.83
2022-10-21T15:46:22.019Z,75.82
2022-10-21T15:48:50.178Z,75.79
2022-10-21T15:51:18.541Z,75.62
2022-10-21T15:53:46.955Z,75.49
2022-10-21T15:56:17.958Z,75.63
2022-10-21T15:58:46.759Z,76.15
2022-10-21T16:01:17.352Z,76.79
2022-10-21T16:03:45.860Z,77.12
2022-10-21T16:06:19.873Z,77.28
2022-10-21T16:08:49.527Z,77.47
2022-10-21T16:11:29.599Z,77.61
2022-10-21T16:14:10.192Z,78.01
2022-10-21T16:16:41.089Z,78.24
2022-10-21T16:19:09.466Z,78.42
2022-10-21T16:21:37.715Z,78.65
2022-10-21T16:24:06.348Z,78.64
2022-10-21T16:26:40.024Z,78.80
2022-10-21T16:29:20.532Z,78.83
2022-10-21T16:31:49.152Z,79.20
2022-10-21T16:34:17.417Z,79.80
2022-10-21T16:36:45.617Z,80.22
2022-10-21T16:39:16.796Z,80.44
2022-10-21T16:41:45.227Z,80.51
2022-10-21T16:44:13.571Z,80.36
2022-10-21T16:46:54.422Z,80.53
2022-10-21T16:49:25.842Z,80.91
2022-10-21T16:51:54.710Z,80.87
2022-10-21T16:54:23.895Z,81.11
2022-10-21T16:56:55.033Z,81.53
2022-10-21T16:59:23.921Z,81.79
2022-10-21T17:01:52.411Z,82.06
2022-10-21T17:04:20.664Z,82.25
2022-10-21T17:06:49.442Z,82.24
2022-10-21T17:09:19.480Z,82.53
2022-10-21T17:11:47.775Z,82.64
2022-10-21T17:14:19.919Z,82.76
2022-10-21T17:16:48.564Z,83.30
2022-10-21T17:19:16.920Z,83.63
2022-10-21T17:21:45.760Z,84.10
2022-10-21T17:24:16.120Z,84.20
2022-10-21T17:26:45.529Z,84.29
2022-10-21T17:29:13.926Z,84.57
2022-10-21T17:31:42.770Z,84.86
2022-10-21T17:34:24.874Z,85.10
2022-10-21T17:36:53.243Z,85.06
2022-10-21T17:39:21.854Z,85.17
2022-10-21T17:41:50.194Z,85.72
2022-10-21T17:44:18.831Z,85.94
2022-10-21T17:46:49.493Z,86.00
2022-10-21T17:49:17.950Z,86.01
2022-10-21T17:51:46.282Z,85.74
2022-10-21T17:54:14.579Z,85.67
2022-10-21T17:56:43.078Z,85.62
2022-10-21T17:59:11.759Z,85.72
2022-10-21T18:01:40.113Z,85.85
2022-10-21T18:04:11.445Z,85.89
2022-10-21T18:06:40.109Z,85.82
2022-10-21T18:09:09.078Z,85.83
2022-10-21T18:11:37.451Z,85.83
2022-10-21T18:14:05.894Z,85.74
2022-10-21T18:16:35.024Z,85.75
2022-10-21T18:19:04.239Z,85.82
2022-10-21T18:21:32.575Z,85.86
2022-10-21T18:24:00.875Z,85.96
2022-10-21T18:26:31.607Z,86.12
2022-10-21T18:29:02.382Z,86.34
2022-10-21T18:31:33.851Z,86.60
2022-10-21T18:34:05.082Z,86.38
2022-10-21T18:36:33.663Z,86.17
2022-10-21T18:39:01.955Z,86.18
2022-10-21T18:41:30.585Z,86.30
2022-10-21T18:44:04.875Z,86.12
2022-10-21T18:46:33.265Z,85.74
2022-10-21T18:49:07.990Z,85.64
2022-10-21T18:51:36.540Z,85.70
2022-10-21T18:54:06.993Z,85.67
2022-10-21T18:56:35.149Z,85.62
2022-10-21T18:59:05.450Z,85.87
2022-10-21T19:01:33.824Z,85.88
2022-10-21T19:04:02.322Z,85.84
2022-10-21T19:06:38.098Z,85.88
2022-10-21T19:09:14.379Z,85.57
2022-10-21T19:11:43.982Z,85.27
2022-10-21T19:14:14.455Z,85.07
2022-10-21T19:16:45.397Z,84.55
2022-10-21T19:19:15.615Z,84.18
2022-10-21T19:21:43.821Z,83.99
2022-10-21T19:24:12.691Z,83.80
2022-10-21T19:26:42.746Z,83.45
2022-10-21T19:29:14.689Z,83.01
2022-10-21T19:31:44.568Z,82.38
2022-10-21T19:34:14.139Z,81.96
2022-10-21T19:36:42.978Z,81.73
2022-10-21T19:39:11.568Z,81.57
2022-10-21T19:41:40.091Z,81.21
2022-10-21T19:44:08.419Z,80.96
2022-10-21T19:46:37.062Z,80.64
2022-10-21T19:49:06.983Z,80.44
2022-10-21T19:51:36.902Z,80.12
2022-10-21T19:54:06.870Z,79.97
2022-10-21T19:56:35.815Z,79.73
2022-10-21T19:59:05.074Z,79.56
2022-10-21T20:01:34.447Z,79.40
2022-10-21T20:04:03.561Z,79.15
2022-10-21T20:06:35.813Z,79.19
2022-10-21T20:09:07.456Z,79.10
2022-10-21T20:11:36.797Z,78.93
2022-10-21T20:14:05.741Z,78.87
2022-10-21T20:16:37.283Z,78.65
2022-10-21T20:19:06.866Z,78.69
2022-10-21T20:21:36.676Z,78.64
2022-10-21T20:24:05.468Z,78.45
2022-10-21T20:26:34.308Z,78.49
2022-10-21T20:29:02.661Z,78.49
2022-10-21T20:31:31.071Z,78.38
2022-10-21T20:33:59.518Z,78.25
2022-10-21T20:36:34.733Z,78.24
2022-10-21T20:39:03.873Z,78.15
2022-10-21T20:41:36.168Z,77.92
2022-10-21T20:44:07.049Z,77.79
2022-10-21T20:46:36.450Z,77.74
2022-10-21T20:49:07.298Z,77.23
2022-10-21T20:51:37.728Z,76.95
2022-10-21T20:54:08.889Z,76.73
2022-10-21T20:56:39.589Z,76.59
2022-10-21T20:59:10.518Z,76.20
2022-10-21T21:01:43.121Z,75.66
2022-10-21T21:04:13.916Z,75.33
2022-10-21T21:06:45.378Z,75.09
2022-10-21T21:09:37.666Z,74.96
2022-10-21T21:12:04.262Z,74.57
2022-10-21T21:14:32.935Z,74.26
2022-10-21T21:17:01.197Z,73.95
2022-10-21T21:19:29.466Z,73.79
2022-10-21T21:21:58.106Z,73.58
2022-10-21T21:24:26.681Z,73.67
2022-10-21T21:26:55.109Z,73.49
2022-10-21T21:29:23.642Z,73.19
2022-10-21T21:31:51.871Z,73.02
2022-10-21T21:34:20.110Z,72.90
2022-10-21T21:36:48.349Z,72.96
2022-10-21T21:39:16.537Z,72.83
2022-10-21T21:41:44.860Z,72.74
2022-10-21T21:44:13.106Z,72.66
2022-10-21T21:46:41.295Z,72.61
2022-10-21T21:49:09.805Z,72.52
2022-10-21T21:51:38.294Z,72.34
2022-10-21T21:54:07.986Z,72.44
2022-10-21T21:56:36.446Z,72.39
2022-10-21T21:59:04.762Z,72.51
2022-10-21T22:01:33.147Z,72.52
2022-10-21T22:04:01.503Z,72.52
2022-10-21T22:06:32.847Z,72.16
2022-10-21T22:09:01.775Z,72.24
2022-10-21T22:11:32.330Z,72.01
2022-10-21T22:14:01.116Z,71.97
2022-10-21T22:16:32.812Z,71.92
2022-10-21T22:19:01.355Z,72.09
2022-10-21T22:21:31.012Z,72.15
2022-10-21T22:23:59.621Z,71.88
2022-10-21T22:26:28.198Z,71.81
2022-10-21T22:28:56.418Z,71.64
2022-10-21T22:31:29.218Z,71.93
2022-10-21T22:34:00.979Z,71.92
2022-10-21T22:36:29.535Z,71.99
2022-10-21T22:38:58.026Z,71.86
2022-10-21T22:41:27.009Z,72.01
2022-10-21T22:43:55.431Z,72.34
2022-10-21T22:46:38.883Z,72.37
2022-10-21T22:49:07.724Z,73.03
2022-10-21T22:51:35.986Z,73.95
2022-10-21T22:54:05.615Z,74.43
2022-10-21T22:56:38.816Z,74.92
2022-10-21T22:59:06.994Z,74.92
2022-10-21T23:01:35.251Z,75.27
2022-10-21T23:04:04.208Z,75.49
2022-10-21T23:06:34.729Z,75.61
2022-10-21T23:09:04.769Z,75.64
2022-10-21T23:11:33.240Z,75.91
2022-10-21T23:14:03.249Z,76.61
2022-10-21T23:16:36.740Z,77.06
2022-10-21T23:19:06.345Z,77.60
2022-10-21T23:21:35.287Z,77.73
2022-10-21T23:24:05.005Z,77.87
2022-10-21T23:26:33.270Z,78.08
2022-10-21T23:29:01.678Z,78.15
2022-10-21T23:31:29.991Z,78.39
2022-10-21T23:33:58.184Z,78.81
2022-10-21T23:36:26.409Z,79.09
2022-10-21T23:38:56.152Z,79.33
2022-10-21T23:41:24.880Z,79.28
2022-10-21T23:43:53.460Z,79.31
2022-10-21T23:46:22.792Z,79.70
2022-10-21T23:48:51.052Z,79.95
2022-10-21T23:51:20.126Z,79.95
2022-10-21T23:53:48.480Z,80.36
2022-10-21T23:56:16.776Z,80.80
2022-10-21T23:58:44.976Z,81.05
